createdAt,value
2022-10-07T00:01:53.428Z,3.30
2022-10-07T00:04:20.612Z,3.38
2022-10-07T00:06:47.657Z,3.60
2022-10-07T00:09:15.106Z,3.55
2022-10-07T00:11:42.430Z,2.85
2022-10-07T00:14:09.476Z,2.78
2022-10-07T00:16:38.145Z,2.78
2022-10-07T00:19:07.578Z,3.28
2022-10-07T00:21:35.412Z,3.35
2022-10-07T00:24:02.697Z,3.42
2022-10-07T00:26:31.311Z,3.40
2022-10-07T00:28:58.941Z,3.05
2022-10-07T00:31:27.172Z,3.10
2022-10-07T00:33:55.090Z,4.43
2022-10-07T00:36:32.681Z,3.17
2022-10-07T00:39:00.848Z,3.08
2022-10-07T00:41:29.470Z,3.33
2022-10-07T00:43:57.337Z,2.70
2022-10-07T00:46:33.951Z,3.08
2022-10-07T00:49:06.379Z,3.50
2022-10-07T00:51:34.659Z,3.15
2022-10-07T00:54:03.012Z,3.08
2022-10-07T00:56:30.447Z,3.22
2022-10-07T00:58:59.305Z,3.15
2022-10-07T01:01:27.051Z,2.92
2022-10-07T01:03:54.883Z,2.55
2022-10-07T01:06:22.569Z,3.17
2022-10-07T01:08:52.754Z,2.63
2022-10-07T01:11:22.614Z,3.30
2022-10-07T01:13:49.596Z,3.28
2022-10-07T01:16:25.752Z,3.17
2022-10-07T01:19:04.899Z,3.25
2022-10-07T01:21:31.920Z,3.47
2022-10-07T01:24:02.687Z,3.15
2022-10-07T01:26:29.676Z,3.17
2022-10-07T01:29:00.900Z,3.47
2022-10-07T01:31:32.719Z,3.10
2022-10-07T01:34:00.700Z,3.35
2022-10-07T01:36:28.016Z,3.65
2022-10-07T01:38:59.313Z,3.95
2022-10-07T01:41:26.349Z,2.97
2022-10-07T01:43:54.813Z,3.47
2022-10-07T01:46:24.056Z,3.53
2022-10-07T01:48:51.872Z,4.03
2022-10-07T01:51:21.450Z,3.40
2022-10-07T01:54:01.644Z,3.47
2022-10-07T01:56:40.852Z,3.97
2022-10-07T01:59:22.460Z,4.00
2022-10-07T02:01:58.542Z,4.18
2022-10-07T02:04:25.597Z,4.28
2022-10-07T02:07:13.516Z,3.78
2022-10-07T02:09:50.082Z,4.60
2022-10-07T02:12:23.217Z,3.50
2022-10-07T02:14:53.866Z,4.07
2022-10-07T02:17:21.983Z,4.32
2022-10-07T02:19:50.052Z,4.05
2022-10-07T02:22:18.320Z,3.75
2022-10-07T02:24:47.653Z,3.75
2022-10-07T02:27:16.862Z,3.88
2022-10-07T02:29:44.902Z,4.90
2022-10-07T02:32:14.306Z,3.78
2022-10-07T02:34:43.484Z,4.85
2022-10-07T02:37:18.535Z,4.15
2022-10-07T02:39:46.744Z,4.20
2022-10-07T02:42:36.025Z,4.00
2022-10-07T02:45:15.760Z,3.95
2022-10-07T02:48:01.365Z,4.13
2022-10-07T02:50:34.629Z,3.92
2022-10-07T02:53:02.942Z,3.85
2022-10-07T02:55:30.800Z,4.15
2022-10-07T02:58:04.052Z,4.40
2022-10-07T03:00:33.375Z,4.55
2022-10-07T03:03:02.492Z,3.90
2022-10-07T03:05:30.333Z,3.30
2022-10-07T03:07:59.498Z,4.18
2022-10-07T03:10:29.723Z,3.33
2022-10-07T03:12:57.020Z,3.20
2022-10-07T03:15:24.459Z,3.13
2022-10-07T03:17:51.511Z,2.72
2022-10-07T03:20:18.551Z,3.40
2022-10-07T03:22:45.620Z,3.80
2022-10-07T03:25:13.192Z,3.30
2022-10-07T03:27:42.464Z,3.03
2022-10-07T03:30:10.979Z,3.70
2022-10-07T03:32:39.310Z,2.95
2022-10-07T03:35:06.553Z,3.63
2022-10-07T03:37:33.558Z,2.95
2022-10-07T03:40:00.550Z,3.75
2022-10-07T03:42:27.601Z,3.38
2022-10-07T03:44:54.579Z,3.22
2022-10-07T03:47:21.666Z,4.18
2022-10-07T03:49:48.847Z,3.60
2022-10-07T03:52:15.907Z,3.28
2022-10-07T03:54:43.487Z,4.40
2022-10-07T03:57:29.099Z,4.25
2022-10-07T03:59:56.105Z,4.38
2022-10-07T04:02:23.334Z,3.92
2022-10-07T04:04:52.644Z,3.85
2022-10-07T04:07:22.872Z,3.85
2022-10-07T04:09:49.906Z,4.93
2022-10-07T04:12:17.220Z,4.43
2022-10-07T04:14:44.906Z,3.92
2022-10-07T04:17:11.989Z,3.83
2022-10-07T04:19:39.053Z,4.55
2022-10-07T04:22:08.873Z,3.53
2022-10-07T04:24:36.149Z,4.25
2022-10-07T04:27:06.642Z,4.32
2022-10-07T04:29:38.895Z,4.68
2022-10-07T04:32:06.394Z,4.20
2022-10-07T04:34:33.461Z,4.60
2022-10-07T04:37:01.043Z,4.15
2022-10-07T04:39:48.965Z,4.32
2022-10-07T04:42:34.307Z,3.85
2022-10-07T04:45:00.936Z,4.78
2022-10-07T04:47:27.530Z,4.38
2022-10-07T04:49:55.037Z,4.18
2022-10-07T04:52:21.636Z,3.58
2022-10-07T04:54:48.651Z,4.10
2022-10-07T04:57:15.724Z,4.15
2022-10-07T04:59:43.255Z,4.68
2022-10-07T05:02:10.687Z,5.35
2022-10-07T05:04:37.789Z,4.90
2022-10-07T05:07:05.334Z,4.68
2022-10-07T05:09:32.371Z,5.03
2022-10-07T05:11:59.344Z,5.90
2022-10-07T05:14:26.420Z,6.55
2022-10-07T05:16:53.909Z,7.07
2022-10-07T05:19:20.993Z,8.38
2022-10-07T05:21:48.004Z,9.43
2022-10-07T05:24:14.985Z,10.18
2022-10-07T05:26:42.048Z,10.07
2022-10-07T05:29:09.401Z,11.60
2022-10-07T05:31:36.402Z,10.50
2022-10-07T05:34:03.495Z,11.18
2022-10-07T05:36:30.477Z,11.32
2022-10-07T05:38:58.078Z,12.73
2022-10-07T05:41:25.335Z,13.00
2022-10-07T05:43:52.312Z,11.95
2022-10-07T05:46:23.698Z,11.73
2022-10-07T05:48:51.806Z,13.82
2022-10-07T05:51:19.419Z,12.52
2022-10-07T05:53:46.774Z,11.75
2022-10-07T05:56:18.164Z,12.13
2022-10-07T05:58:46.008Z,11.18
2022-10-07T06:01:14.982Z,10.85
2022-10-07T06:03:42.659Z,10.02
2022-10-07T06:06:09.693Z,10.15
2022-10-07T06:08:37.121Z,9.88
2022-10-07T06:11:23.510Z,9.90
2022-10-07T06:13:51.294Z,10.23
2022-10-07T06:16:18.760Z,10.20
2022-10-07T06:18:47.614Z,10.60
2022-10-07T06:21:14.643Z,8.52
2022-10-07T06:23:41.663Z,9.63
2022-10-07T06:26:10.321Z,9.30
2022-10-07T06:28:38.517Z,9.65
2022-10-07T06:31:06.557Z,9.65
2022-10-07T06:33:34.041Z,8.68
2022-10-07T06:36:07.997Z,9.23
2022-10-07T06:41:02.965Z,8.20
2022-10-07T06:43:30.842Z,8.48
2022-10-07T06:45:58.778Z,9.15
2022-10-07T06:48:26.364Z,9.00
2022-10-07T06:50:54.207Z,9.18
2022-10-07T06:53:21.556Z,8.63
2022-10-07T06:55:54.525Z,9.38
2022-10-07T06:58:22.555Z,8.70
2022-10-07T07:00:50.213Z,7.95
2022-10-07T07:03:18.026Z,8.20
2022-10-07T07:05:46.406Z,8.07
2022-10-07T07:08:17.317Z,9.52
2022-10-07T07:10:45.375Z,8.57
2022-10-07T07:13:12.929Z,8.55
2022-10-07T07:15:40.570Z,7.45
2022-10-07T07:18:08.570Z,8.43
2022-10-07T07:20:37.282Z,8.43
2022-10-07T07:23:05.023Z,7.35
2022-10-07T07:25:32.679Z,8.30
2022-10-07T07:28:03.256Z,7.82
2022-10-07T07:30:30.580Z,7.50
2022-10-07T07:32:58.130Z,8.90
2022-10-07T07:35:26.688Z,7.50
2022-10-07T07:37:54.403Z,8.13
2022-10-07T07:40:22.011Z,8.10
2022-10-07T07:42:49.401Z,8.95
2022-10-07T07:45:17.993Z,8.35
2022-10-07T07:47:49.248Z,8.88
2022-10-07T07:50:18.357Z,9.20
2022-10-07T07:52:45.463Z,9.32
2022-10-07T07:55:12.524Z,11.20
2022-10-07T07:57:39.662Z,10.10
2022-10-07T08:00:07.437Z,11.43
2022-10-07T08:02:34.733Z,10.88
2022-10-07T08:05:01.792Z,9.25
2022-10-07T08:07:28.895Z,11.10
2022-10-07T08:09:55.917Z,9.93
2022-10-07T08:12:23.684Z,9.98
2022-10-07T08:14:50.675Z,9.35
2022-10-07T08:17:17.705Z,10.73
2022-10-07T08:19:44.728Z,9.35
2022-10-07T08:22:17.399Z,10.20
2022-10-07T08:24:44.490Z,11.18
2022-10-07T08:27:11.533Z,11.70
2022-10-07T08:29:38.585Z,10.82
2022-10-07T08:32:06.454Z,11.35
2022-10-07T08:34:33.511Z,11.88
2022-10-07T08:37:00.497Z,11.65
2022-10-07T08:39:29.462Z,13.40
2022-10-07T08:42:03.319Z,17.50
2022-10-07T08:44:35.925Z,12.52
2022-10-07T08:47:02.898Z,10.55
2022-10-07T08:49:51.019Z,12.25
2022-10-07T08:52:25.156Z,12.02
2022-10-07T08:54:52.173Z,12.40
2022-10-07T08:57:24.534Z,11.18
2022-10-07T08:59:53.562Z,13.05
2022-10-07T09:02:33.272Z,12.73
2022-10-07T09:05:21.820Z,12.45
2022-10-07T09:07:50.669Z,14.02
2022-10-07T09:10:17.635Z,12.10
2022-10-07T09:12:47.725Z,12.73
2022-10-07T09:15:24.087Z,12.27
2022-10-07T09:17:55.131Z,12.57
2022-10-07T09:20:26.276Z,11.10
2022-10-07T09:22:57.316Z,13.05
2022-10-07T09:25:25.960Z,10.65
2022-10-07T09:27:54.423Z,12.38
2022-10-07T09:30:27.805Z,11.85
2022-10-07T09:32:55.538Z,12.07
2022-10-07T09:35:26.937Z,11.85
2022-10-07T09:38:10.015Z,12.45
2022-10-07T09:41:03.552Z,11.82
2022-10-07T09:43:32.425Z,12.35
2022-10-07T09:46:00.617Z,11.55
2022-10-07T09:48:34.313Z,10.50
2022-10-07T09:51:15.365Z,11.80
2022-10-07T09:54:05.484Z,12.23
2022-10-07T09:56:39.941Z,12.85
2022-10-07T09:59:23.812Z,12.88
2022-10-07T10:01:55.477Z,12.73
2022-10-07T10:04:29.032Z,11.65
2022-10-07T10:06:58.814Z,12.40
2022-10-07T10:09:26.500Z,12.85
2022-10-07T10:12:06.717Z,12.32
2022-10-07T10:14:48.827Z,12.07
2022-10-07T10:17:23.672Z,11.63
2022-10-07T10:19:50.745Z,12.18
2022-10-07T10:22:25.926Z,11.05
2022-10-07T10:25:12.314Z,11.13
2022-10-07T10:27:45.393Z,12.20
2022-10-07T10:30:17.310Z,13.77
2022-10-07T10:33:04.429Z,13.15
2022-10-07T10:35:42.080Z,12.07
2022-10-07T10:38:12.376Z,12.65
2022-10-07T10:40:56.493Z,11.55
2022-10-07T10:43:26.717Z,11.90
2022-10-07T10:46:01.337Z,15.02
2022-10-07T10:48:31.347Z,12.05
2022-10-07T10:51:02.092Z,11.82
2022-10-07T10:53:48.100Z,11.80
2022-10-07T10:56:34.200Z,11.60
2022-10-07T10:59:09.322Z,12.75
2022-10-07T11:01:40.788Z,10.82
2022-10-07T11:04:15.773Z,11.20
2022-10-07T11:06:44.091Z,11.13
2022-10-07T11:09:16.450Z,11.60
2022-10-07T11:11:44.808Z,12.13
2022-10-07T11:14:17.624Z,13.52
2022-10-07T11:16:47.137Z,13.07
2022-10-07T11:19:20.392Z,11.50
2022-10-07T11:21:49.265Z,13.48
2022-10-07T11:24:31.061Z,11.45
2022-10-07T11:27:00.203Z,11.88
2022-10-07T11:29:49.327Z,11.82
2022-10-07T11:32:38.645Z,11.80
2022-10-07T11:35:23.234Z,11.25
2022-10-07T11:37:57.916Z,11.90
2022-10-07T11:40:28.995Z,11.43
2022-10-07T11:42:57.668Z,11.35
2022-10-07T11:45:27.325Z,12.15
2022-10-07T11:47:59.786Z,11.65
2022-10-07T11:50:29.187Z,10.10
2022-10-07T11:53:01.423Z,11.35
2022-10-07T11:55:36.261Z,11.98
2022-10-07T11:58:04.170Z,11.50
2022-10-07T12:00:40.340Z,12.57
2022-10-07T12:03:13.186Z,11.65
2022-10-07T12:05:40.240Z,12.00
2022-10-07T12:08:29.216Z,12.15
2022-10-07T12:10:57.219Z,13.00
2022-10-07T12:13:24.170Z,12.13
2022-10-07T12:15:51.782Z,12.23
2022-10-07T12:18:27.732Z,11.90
2022-10-07T12:20:59.531Z,11.48
2022-10-07T12:23:26.553Z,11.23
2022-10-07T12:26:00.733Z,11.02
2022-10-07T12:28:40.766Z,12.55
2022-10-07T12:31:28.644Z,10.40
2022-10-07T12:34:09.180Z,11.50
2022-10-07T12:36:37.748Z,10.10
2022-10-07T12:39:04.732Z,10.43
2022-10-07T12:41:36.420Z,11.38
2022-10-07T12:44:12.635Z,10.13
2022-10-07T12:46:39.635Z,10.23
2022-10-07T12:49:15.057Z,10.85
2022-10-07T12:51:42.194Z,10.25
2022-10-07T12:54:20.508Z,10.60
2022-10-07T12:56:49.002Z,10.40
2022-10-07T12:59:50.284Z,10.90
2022-10-07T13:02:31.022Z,10.82
2022-10-07T13:05:15.437Z,9.95
2022-10-07T13:08:08.271Z,10.23
2022-10-07T13:10:54.153Z,10.65
2022-10-07T13:13:34.325Z,10.60
2022-10-07T13:16:09.617Z,8.93
2022-10-07T13:18:42.451Z,8.68
2022-10-07T13:21:12.405Z,9.50
2022-10-07T13:23:39.463Z,9.80
2022-10-07T13:26:07.653Z,9.07
2022-10-07T13:28:37.855Z,9.00
2022-10-07T13:31:19.015Z,8.73
2022-10-07T13:33:46.308Z,8.07
2022-10-07T13:36:13.267Z,8.70
2022-10-07T13:38:39.926Z,8.18
2022-10-07T13:41:15.692Z,8.13
2022-10-07T13:43:44.454Z,6.85
2022-10-07T13:46:12.703Z,7.25
2022-10-07T13:48:45.804Z,8.20
2022-10-07T13:51:34.013Z,8.70
2022-10-07T13:54:03.758Z,8.25
2022-10-07T13:56:35.008Z,8.43
2022-10-07T13:59:03.358Z,8.80
2022-10-07T14:01:32.209Z,9.77
2022-10-07T14:04:27.625Z,9.40
2022-10-07T14:07:14.511Z,9.30
2022-10-07T14:10:00.584Z,9.85
2022-10-07T14:12:44.673Z,10.02
2022-10-07T14:15:22.728Z,9.57
2022-10-07T14:18:04.652Z,9.18
2022-10-07T14:20:34.693Z,9.27
2022-10-07T14:23:28.211Z,9.52
2022-10-07T14:25:57.442Z,8.27
2022-10-07T14:28:24.067Z,8.23
2022-10-07T14:31:27.750Z,8.23
2022-10-07T14:34:15.705Z,8.40
2022-10-07T14:37:01.369Z,7.43
2022-10-07T14:39:42.299Z,8.27
2022-10-07T14:42:19.609Z,7.82
2022-10-07T14:44:46.630Z,7.75
2022-10-07T14:47:13.390Z,7.43
2022-10-07T14:49:43.496Z,8.20
2022-10-07T14:52:18.987Z,7.70
2022-10-07T14:54:46.286Z,7.75
2022-10-07T14:57:13.283Z,7.85
2022-10-07T14:59:40.069Z,7.78
2022-10-07T15:02:07.078Z,8.57
2022-10-07T15:04:33.760Z,8.95
2022-10-07T15:07:00.474Z,7.82
2022-10-07T15:09:27.308Z,7.47
2022-10-07T15:11:54.073Z,8.02
2022-10-07T15:14:20.979Z,8.43
2022-10-07T15:16:50.310Z,7.93
2022-10-07T15:19:17.079Z,7.75
2022-10-07T15:21:44.099Z,8.20
2022-10-07T15:24:10.692Z,6.70
2022-10-07T15:26:37.297Z,7.28
2022-10-07T15:29:04.051Z,8.52
2022-10-07T15:31:30.746Z,8.35
2022-10-07T15:33:57.802Z,8.20
2022-10-07T15:36:26.881Z,8.45
2022-10-07T15:38:54.275Z,9.05
2022-10-07T15:41:36.982Z,9.23
2022-10-07T15:44:07.132Z,10.23
2022-10-07T15:46:34.932Z,9.00
2022-10-07T15:49:03.411Z,13.32
2022-10-07T15:51:31.031Z,9.10
2022-10-07T15:53:58.249Z,10.35
2022-10-07T15:56:25.448Z,9.10
2022-10-07T15:58:53.073Z,10.18
2022-10-07T16:01:20.676Z,10.80
2022-10-07T16:03:48.979Z,11.75
2022-10-07T16:06:15.870Z,12.43
2022-10-07T16:08:42.891Z,10.30
2022-10-07T16:11:11.497Z,9.80
2022-10-07T16:13:40.305Z,10.75
2022-10-07T16:16:12.678Z,13.45
2022-10-07T16:18:41.634Z,12.80
2022-10-07T16:21:09.397Z,11.20
2022-10-07T16:23:37.786Z,11.90
2022-10-07T16:26:13.222Z,12.60
2022-10-07T16:29:00.594Z,12.48
2022-10-07T16:31:29.889Z,13.13
2022-10-07T16:33:56.945Z,12.35
2022-10-07T16:36:25.322Z,13.73
2022-10-07T16:38:53.401Z,13.10
2022-10-07T16:41:21.181Z,13.50
2022-10-07T16:43:47.851Z,13.57
2022-10-07T16:46:18.603Z,13.52
2022-10-07T16:48:47.439Z,14.15
2022-10-07T16:51:20.352Z,13.65
2022-10-07T16:53:48.931Z,10.55
2022-10-07T16:56:20.008Z,13.25
2022-10-07T16:58:47.026Z,13.13
2022-10-07T17:01:16.232Z,12.43
2022-10-07T17:03:46.725Z,13.40
2022-10-07T17:06:15.777Z,13.80
2022-10-07T17:08:47.443Z,13.38
2022-10-07T17:11:30.074Z,12.77
2022-10-07T17:14:23.621Z,13.02
2022-10-07T17:16:52.571Z,9.88
2022-10-07T17:19:21.974Z,15.70
2022-10-07T17:21:49.791Z,15.10
2022-10-07T17:24:18.177Z,14.50
2022-10-07T17:26:45.511Z,13.13
2022-10-07T17:29:14.733Z,12.52
2022-10-07T17:31:43.269Z,13.85
2022-10-07T17:34:13.234Z,13.25
2022-10-07T17:36:40.817Z,14.10
2022-10-07T17:39:07.602Z,14.02
2022-10-07T17:41:36.825Z,13.48
2022-10-07T17:44:08.140Z,14.57
2022-10-07T17:46:36.398Z,14.85
2022-10-07T17:49:03.637Z,14.25
2022-10-07T17:51:32.099Z,16.40
2022-10-07T17:54:00.553Z,14.63
2022-10-07T17:56:29.338Z,14.20
2022-10-07T17:58:57.104Z,14.48
2022-10-07T18:01:27.328Z,14.77
2022-10-07T18:04:02.003Z,15.80
2022-10-07T18:06:31.869Z,15.73
2022-10-07T18:08:59.048Z,16.80
2022-10-07T18:11:46.403Z,14.57
2022-10-07T18:14:31.655Z,14.65
2022-10-07T18:16:58.238Z,14.50
2022-10-07T18:19:26.467Z,15.27
2022-10-07T18:21:56.147Z,14.18
2022-10-07T18:24:29.286Z,15.45
2022-10-07T18:26:59.636Z,16.30
2022-10-07T18:29:32.076Z,14.82
2022-10-07T18:31:59.602Z,15.15
2022-10-07T18:34:26.252Z,14.40
2022-10-07T18:36:56.600Z,14.88
2022-10-07T18:39:29.329Z,14.50
2022-10-07T18:41:56.119Z,14.25
2022-10-07T18:44:22.763Z,14.40
2022-10-07T18:46:49.453Z,16.58
2022-10-07T18:49:16.085Z,14.93
2022-10-07T18:51:43.086Z,14.38
2022-10-07T18:54:10.561Z,15.25
2022-10-07T18:56:41.131Z,15.98
2022-10-07T18:59:09.481Z,15.35
2022-10-07T19:01:37.284Z,13.27
2022-10-07T19:04:05.232Z,15.43
2022-10-07T19:06:34.529Z,13.60
2022-10-07T19:09:04.281Z,14.07
2022-10-07T19:11:30.907Z,14.10
2022-10-07T19:13:59.109Z,14.10
2022-10-07T19:16:37.708Z,15.02
2022-10-07T19:19:10.132Z,13.95
2022-10-07T19:21:39.342Z,15.10
2022-10-07T19:24:06.934Z,16.40
2022-10-07T19:26:43.752Z,16.73
2022-10-07T19:29:11.920Z,14.68
2022-10-07T19:31:41.477Z,15.52
2022-10-07T19:34:13.865Z,17.13
2022-10-07T19:36:42.309Z,17.13
2022-10-07T19:39:10.351Z,17.40
2022-10-07T19:41:37.507Z,16.10
2022-10-07T19:44:04.804Z,17.50
2022-10-07T19:46:33.298Z,16.63
2022-10-07T19:49:01.746Z,17.35
2022-10-07T19:51:30.341Z,17.80
2022-10-07T19:53:58.478Z,18.60
2022-10-07T19:56:28.643Z,16.52
2022-10-07T19:58:57.843Z,16.75
2022-10-07T20:01:31.804Z,18.30
2022-10-07T20:04:04.418Z,18.20
2022-10-07T20:06:31.205Z,17.08
2022-10-07T20:08:58.653Z,17.67
2022-10-07T20:11:27.658Z,17.27
2022-10-07T20:13:54.366Z,18.15
2022-10-07T20:16:24.170Z,18.95
2022-10-07T20:18:57.125Z,17.98
2022-10-07T20:21:24.077Z,18.15
2022-10-07T20:23:53.200Z,17.48
2022-10-07T20:26:25.767Z,17.70
2022-10-07T20:28:54.901Z,17.27
2022-10-07T20:31:24.275Z,17.88
2022-10-07T20:33:53.181Z,16.40
2022-10-07T20:36:23.488Z,17.88
2022-10-07T20:39:24.895Z,16.80
2022-10-07T20:42:11.436Z,17.20
2022-10-07T20:44:38.798Z,16.05
2022-10-07T20:47:07.620Z,17.85
2022-10-07T20:49:37.093Z,16.90
2022-10-07T20:52:06.913Z,18.30
2022-10-07T20:54:33.859Z,17.38
2022-10-07T20:57:00.920Z,18.17
2022-10-07T20:59:30.067Z,18.27
2022-10-07T21:01:57.809Z,17.92
2022-10-07T21:04:26.910Z,18.85
2022-10-07T21:06:54.397Z,18.52
2022-10-07T21:09:20.997Z,19.88
2022-10-07T21:11:48.206Z,18.83
2022-10-07T21:14:16.993Z,16.90
2022-10-07T21:16:44.746Z,18.13
2022-10-07T21:19:11.516Z,18.83
2022-10-07T21:21:39.088Z,18.83
2022-10-07T21:24:07.079Z,18.25
2022-10-07T21:26:35.224Z,18.95
2022-10-07T21:29:03.585Z,18.48
2022-10-07T21:31:31.335Z,18.90
2022-10-07T21:34:01.471Z,18.67
2022-10-07T21:36:28.339Z,17.40
2022-10-07T21:38:58.742Z,18.40
2022-10-07T21:41:38.509Z,18.17
2022-10-07T21:44:07.191Z,18.30
2022-10-07T21:46:36.548Z,17.30
2022-10-07T21:49:03.740Z,17.55
2022-10-07T21:51:32.187Z,18.48
2022-10-07T21:53:58.997Z,19.00
2022-10-07T21:56:28.224Z,17.33
2022-10-07T21:58:55.172Z,18.50
2022-10-07T22:01:23.878Z,18.67
2022-10-07T22:04:15.791Z,18.95
2022-10-07T22:07:01.290Z,18.25
2022-10-07T22:09:27.916Z,18.35
2022-10-07T22:11:54.574Z,17.73
2022-10-07T22:14:21.246Z,18.60
2022-10-07T22:16:48.392Z,15.82
2022-10-07T22:19:16.531Z,17.00
2022-10-07T22:21:43.553Z,17.40
2022-10-07T22:24:10.262Z,18.38
2022-10-07T22:26:40.411Z,18.40
2022-10-07T22:29:09.510Z,17.33
2022-10-07T22:31:37.124Z,16.25
2022-10-07T22:34:04.342Z,16.67
2022-10-07T22:36:31.008Z,17.02
2022-10-07T22:38:59.211Z,15.68
2022-10-07T22:41:27.054Z,15.90
2022-10-07T22:43:54.009Z,14.90
2022-10-07T22:46:26.092Z,15.73
2022-10-07T22:48:57.761Z,15.00
2022-10-07T22:51:28.207Z,15.98
2022-10-07T22:53:56.312Z,14.57
2022-10-07T22:56:24.585Z,13.50
2022-10-07T22:58:54.305Z,13.20
2022-10-07T23:01:21.657Z,13.68
2022-10-07T23:03:48.478Z,13.95
2022-10-07T23:06:18.087Z,13.75
2022-10-07T23:08:45.930Z,14.38
2022-10-07T23:11:30.970Z,14.45
2022-10-07T23:13:57.729Z,12.98
2022-10-07T23:16:29.385Z,13.85
2022-10-07T23:18:56.765Z,14.80
2022-10-07T23:21:25.526Z,14.88
2022-10-07T23:24:01.739Z,15.30
2022-10-07T23:26:31.656Z,15.18
2022-10-07T23:28:59.950Z,15.65
2022-10-07T23:31:28.320Z,14.52
2022-10-07T23:33:56.468Z,15.07
2022-10-07T23:36:23.738Z,16.17
2022-10-07T23:38:50.986Z,16.00
2022-10-07T23:41:20.794Z,15.77
2022-10-07T23:43:51.837Z,14.85
2022-10-07T23:46:19.782Z,15.15
2022-10-07T23:48:46.981Z,14.13
2022-10-07T23:51:16.658Z,15.70
2022-10-07T23:53:43.585Z,14.73
2022-10-07T23:56:10.407Z,14.20
2022-10-07T23:58:37.606Z,13.32
